sensor_id;sensor_type;location;lat;lon;timestamp;pressure;altitude;pressure_sealevel;temperature;humidity
43804;BME280;29430;52.924;-2.388;2023-06-22T00:04:43;99484.34;;;19.77;77.37
43804;BME280;29430;52.924;-2.388;2023-06-22T00:09:35;99471.19;;;19.63;77.16
43804;BME280;29430;52.924;-2.388;2023-06-22T00:14:27;99482.00;;;19.49;77.07
43804;BME280;29430;52.924;-2.388;2023-06-22T00:19:18;99480.41;;;19.33;78.13
43804;BME280;29430;52.924;-2.388;2023-06-22T00:24:13;99477.44;;;19.19;77.73
43804;BME280;29430;52.924;-2.388;2023-06-22T00:29:04;99480.50;;;19.07;77.94
43804;BME280;29430;52.924;-2.388;2023-06-22T00:33:56;99478.63;;;18.98;78.36
43804;BME280;29430;52.924;-2.388;2023-06-22T00:38:48;99487.44;;;18.89;78.52
43804;BME280;29430;52.924;-2.388;2023-06-22T00:43:42;99492.94;;;18.79;77.13
43804;BME280;29430;52.924;-2.388;2023-06-22T00:48:33;99488.56;;;18.68;77.46
43804;BME280;29430;52.924;-2.388;2023-06-22T00:53:25;99504.75;;;18.64;77.67
43804;BME280;29430;52.924;-2.388;2023-06-22T00:58:18;99505.59;;;18.54;77.84
43804;BME280;29430;52.924;-2.388;2023-06-22T01:03:13;99510.53;;;18.47;78.03
43804;BME280;29430;52.924;-2.388;2023-06-22T01:08:31;99516.03;;;18.42;77.86
43804;BME280;29430;52.924;-2.388;2023-06-22T01:13:52;99516.88;;;18.32;77.84
43804;BME280;29430;52.924;-2.388;2023-06-22T01:18:51;99519.88;;;18.20;78.61
43804;BME280;29430;52.924;-2.388;2023-06-22T01:23:56;99526.44;;;18.19;78.49
43804;BME280;29430;52.924;-2.388;2023-06-22T01:28:58;99520.16;;;18.19;78.22
43804;BME280;29430;52.924;-2.388;2023-06-22T01:33:53;99531.13;;;18.14;78.18
43804;BME280;29430;52.924;-2.388;2023-06-22T01:38:46;99530.56;;;18.06;78.55
43804;BME280;29430;52.924;-2.388;2023-06-22T01:43:39;99531.34;;;17.92;79.12
43804;BME280;29430;52.924;-2.388;2023-06-22T01:48:32;99529.38;;;17.82;79.06
43804;BME280;29430;52.924;-2.388;2023-06-22T01:53:24;99539.78;;;17.75;79.70
43804;BME280;29430;52.924;-2.388;2023-06-22T01:58:16;99544.72;;;17.67;79.87
43804;BME280;29430;52.924;-2.388;2023-06-22T02:03:10;99540.56;;;17.60;80.36
43804;BME280;29430;52.924;-2.388;2023-06-22T02:08:49;99536.69;;;17.56;80.55
43804;BME280;29430;52.924;-2.388;2023-06-22T02:13:42;99546.28;;;17.53;80.65
43804;BME280;29430;52.924;-2.388;2023-06-22T02:18:34;99541.59;;;17.43;81.15
43804;BME280;29430;52.924;-2.388;2023-06-22T02:23:27;99548.13;;;17.37;81.27
43804;BME280;29430;52.924;-2.388;2023-06-22T02:28:19;99545.66;;;17.30;81.67
43804;BME280;29430;52.924;-2.388;2023-06-22T02:33:11;99549.19;;;17.26;82.07
43804;BME280;29430;52.924;-2.388;2023-06-22T02:38:04;99549.13;;;17.21;82.67
43804;BME280;29430;52.924;-2.388;2023-06-22T02:42:56;99559.28;;;17.20;82.93
43804;BME280;29430;52.924;-2.388;2023-06-22T02:47:49;99546.66;;;17.14;83.11
43804;BME280;29430;52.924;-2.388;2023-06-22T02:52:41;99546.66;;;17.14;83.13
43804;BME280;29430;52.924;-2.388;2023-06-22T02:57:33;99552.13;;;17.14;83.58
43804;BME280;29430;52.924;-2.388;2023-06-22T03:02:24;99555.94;;;17.13;83.71
43804;BME280;29430;52.924;-2.388;2023-06-22T03:07:18;99551.53;;;17.07;84.14
43804;BME280;29430;52.924;-2.388;2023-06-22T03:12:09;99560.88;;;17.06;84.02
43804;BME280;29430;52.924;-2.388;2023-06-22T03:17:01;99555.13;;;17.07;84.26
43804;BME280;29430;52.924;-2.388;2023-06-22T03:21:54;99560.59;;;17.07;84.45
43804;BME280;29430;52.924;-2.388;2023-06-22T03:26:46;99568.84;;;17.12;84.73
43804;BME280;29430;52.924;-2.388;2023-06-22T03:31:38;99558.69;;;17.13;84.01
43804;BME280;29430;52.924;-2.388;2023-06-22T03:36:29;99562.28;;;17.13;83.85
43804;BME280;29430;52.924;-2.388;2023-06-22T03:41:21;99547.19;;;17.11;83.86
43804;BME280;29430;52.924;-2.388;2023-06-22T03:46:13;99557.59;;;17.09;83.92
43804;BME280;29430;52.924;-2.388;2023-06-22T03:51:05;99566.63;;;17.09;83.90
43804;BME280;29430;52.924;-2.388;2023-06-22T03:55:57;99560.88;;;17.11;83.58
43804;BME280;29430;52.924;-2.388;2023-06-22T04:00:51;99563.91;;;17.14;83.76
43804;BME280;29430;52.924;-2.388;2023-06-22T04:05:43;99565.84;;;17.19;82.98
43804;BME280;29430;52.924;-2.388;2023-06-22T04:10:35;99570.25;;;17.20;83.38
43804;BME280;29430;52.924;-2.388;2023-06-22T04:15:26;99567.22;;;17.16;83.63
43804;BME280;29430;52.924;-2.388;2023-06-22T04:20:18;99563.34;;;17.12;83.50
43804;BME280;29430;52.924;-2.388;2023-06-22T04:25:10;99563.63;;;17.11;83.95
43804;BME280;29430;52.924;-2.388;2023-06-22T04:30:01;99556.47;;;17.05;84.26
43804;BME280;29430;52.924;-2.388;2023-06-22T04:34:53;99560.88;;;17.06;84.73
43804;BME280;29430;52.924;-2.388;2023-06-22T04:39:45;99560.34;;;17.09;84.18
43804;BME280;29430;52.924;-2.388;2023-06-22T04:44:37;99566.91;;;17.13;83.73
43804;BME280;29430;52.924;-2.388;2023-06-22T04:49:29;99558.75;;;17.18;83.31
43804;BME280;29430;52.924;-2.388;2023-06-22T04:54:24;99564.22;;;17.18;83.23
43804;BME280;29430;52.924;-2.388;2023-06-22T04:59:16;99570.53;;;17.24;83.30
43804;BME280;29430;52.924;-2.388;2023-06-22T05:04:10;99568.66;;;17.24;83.97
43804;BME280;29430;52.924;-2.388;2023-06-22T05:09:02;99567.06;;;17.33;83.04
43804;BME280;29430;52.924;-2.388;2023-06-22T05:13:55;99569.34;;;17.57;83.57
43804;BME280;29430;52.924;-2.388;2023-06-22T05:18:47;99568.94;;;17.96;82.11
43804;BME280;29430;52.924;-2.388;2023-06-22T05:23:39;99559.66;;;18.07;80.98
43804;BME280;29430;52.924;-2.388;2023-06-22T05:28:30;99576.41;;;18.11;80.83
43804;BME280;29430;52.924;-2.388;2023-06-22T05:33:22;99582.75;;;18.22;80.35
43804;BME280;29430;52.924;-2.388;2023-06-22T05:38:14;99574.28;;;18.49;79.49
43804;BME280;29430;52.924;-2.388;2023-06-22T05:43:06;99578.13;;;18.64;77.64
43804;BME280;29430;52.924;-2.388;2023-06-22T05:47:57;99581.66;;;18.64;77.25
43804;BME280;29430;52.924;-2.388;2023-06-22T05:52:49;99590.19;;;18.57;77.19
43804;BME280;29430;52.924;-2.388;2023-06-22T05:57:41;99593.47;;;18.59;76.98
43804;BME280;29430;52.924;-2.388;2023-06-22T06:02:32;99595.44;;;18.69;76.81
43804;BME280;29430;52.924;-2.388;2023-06-22T06:07:25;99590.75;;;18.75;76.97
43804;BME280;29430;52.924;-2.388;2023-06-22T06:12:20;99592.69;;;18.74;76.85
43804;BME280;29430;52.924;-2.388;2023-06-22T06:17:11;99597.09;;;18.75;77.53
43804;BME280;29430;52.924;-2.388;2023-06-22T06:22:03;99596.22;;;18.75;76.85
43804;BME280;29430;52.924;-2.388;2023-06-22T06:26:55;99601.19;;;18.78;77.50
43804;BME280;29430;52.924;-2.388;2023-06-22T06:31:47;99597.88;;;18.81;76.62
43804;BME280;29430;52.924;-2.388;2023-06-22T06:36:39;99600.97;;;18.85;77.49
43804;BME280;29430;52.924;-2.388;2023-06-22T06:41:31;99600.38;;;18.98;77.33
43804;BME280;29430;52.924;-2.388;2023-06-22T06:46:23;99611.09;;;19.20;76.74
43804;BME280;29430;52.924;-2.388;2023-06-22T06:51:15;99616.03;;;19.18;75.63
43804;BME280;29430;52.924;-2.388;2023-06-22T06:56:07;99619.91;;;19.07;76.70
43804;BME280;29430;52.924;-2.388;2023-06-22T07:00:58;99619.91;;;19.07;77.54
43804;BME280;29430;52.924;-2.388;2023-06-22T07:05:50;99619.06;;;19.17;77.03
43804;BME280;29430;52.924;-2.388;2023-06-22T07:10:42;99628.09;;;19.38;77.66
43804;BME280;29430;52.924;-2.388;2023-06-22T07:15:34;99621.66;;;19.73;75.39
43804;BME280;29430;52.924;-2.388;2023-06-22T07:20:25;99626.81;;;20.00;74.27
43804;BME280;29430;52.924;-2.388;2023-06-22T07:25:17;99625.94;;;20.10;73.25
43804;BME280;29430;52.924;-2.388;2023-06-22T07:30:10;99630.09;;;20.02;74.04
43804;BME280;29430;52.924;-2.388;2023-06-22T07:39:55;99638.47;;;20.32;72.99
43804;BME280;29430;52.924;-2.388;2023-06-22T07:44:49;99638.84;;;20.65;73.27
43804;BME280;29430;52.924;-2.388;2023-06-22T07:49:42;99642.59;;;21.14;71.26
43804;BME280;29430;52.924;-2.388;2023-06-22T07:54:34;99639.03;;;21.67;70.53
43804;BME280;29430;52.924;-2.388;2023-06-22T07:59:25;99637.69;;;22.50;65.47
43804;BME280;29430;52.924;-2.388;2023-06-22T08:04:17;99634.00;;;23.07;65.96
43804;BME280;29430;52.924;-2.388;2023-06-22T08:09:09;99638.44;;;24.10;59.67
43804;BME280;29430;52.924;-2.388;2023-06-22T08:14:01;99633.97;;;24.37;57.83
43804;BME280;29430;52.924;-2.388;2023-06-22T08:18:52;99637.84;;;24.64;60.38
43804;BME280;29430;52.924;-2.388;2023-06-22T08:23:44;99634.16;;;25.23;56.38
43804;BME280;29430;52.924;-2.388;2023-06-22T08:28:36;99639.88;;;25.49;55.44
43804;BME280;29430;52.924;-2.388;2023-06-22T08:33:27;99638.84;;;25.45;55.50
43804;BME280;29430;52.924;-2.388;2023-06-22T08:38:21;99629.81;;;25.30;54.85
43804;BME280;29430;52.924;-2.388;2023-06-22T08:43:14;99640.09;;;25.07;57.06
43804;BME280;29430;52.924;-2.388;2023-06-22T08:48:06;99642.06;;;24.84;56.41
43804;BME280;29430;52.924;-2.388;2023-06-22T08:52:58;99636.38;;;24.53;56.84
43804;BME280;29430;52.924;-2.388;2023-06-22T08:57:49;99642.13;;;24.56;59.14
43804;BME280;29430;52.924;-2.388;2023-06-22T09:02:43;99643.69;;;24.62;56.79
43804;BME280;29430;52.924;-2.388;2023-06-22T09:07:35;99644.66;;;24.44;55.51
43804;BME280;29430;52.924;-2.388;2023-06-22T09:12:26;99645.81;;;24.29;57.15
43804;BME280;29430;52.924;-2.388;2023-06-22T09:17:19;99651.81;;;24.45;57.85
43804;BME280;29430;52.924;-2.388;2023-06-22T09:22:10;99655.81;;;24.39;56.72
43804;BME280;29430;52.924;-2.388;2023-06-22T09:27:02;99656.72;;;24.48;55.75
43804;BME280;29430;52.924;-2.388;2023-06-22T09:31:54;99655.34;;;24.37;57.19
43804;BME280;29430;52.924;-2.388;2023-06-22T09:36:47;99653.25;;;25.24;58.36
43804;BME280;29430;52.924;-2.388;2023-06-22T09:41:39;99657.31;;;26.30;56.91
43804;BME280;29430;52.924;-2.388;2023-06-22T09:46:30;99657.28;;;27.26;52.53
43804;BME280;29430;52.924;-2.388;2023-06-22T09:51:23;99657.06;;;27.96;50.96
43804;BME280;29430;52.924;-2.388;2023-06-22T09:56:15;99663.72;;;28.63;49.39
43804;BME280;29430;52.924;-2.388;2023-06-22T10:01:07;99659.34;;;28.74;45.89
43804;BME280;29430;52.924;-2.388;2023-06-22T10:05:58;99653.63;;;28.71;47.68
43804;BME280;29430;52.924;-2.388;2023-06-22T10:10:50;99661.00;;;29.09;47.41
43804;BME280;29430;52.924;-2.388;2023-06-22T10:15:44;99647.97;;;29.46;43.99
43804;BME280;29430;52.924;-2.388;2023-06-22T10:20:41;99656.47;;;29.62;43.92
43804;BME280;29430;52.924;-2.388;2023-06-22T10:25:32;99659.63;;;29.73;42.73
43804;BME280;29430;52.924;-2.388;2023-06-22T10:30:24;99662.84;;;29.26;43.13
43804;BME280;29430;52.924;-2.388;2023-06-22T10:35:16;99658.69;;;28.90;45.40
43804;BME280;29430;52.924;-2.388;2023-06-22T10:40:08;99665.84;;;29.00;45.63
43804;BME280;29430;52.924;-2.388;2023-06-22T10:45:00;99669.91;;;28.69;46.81
43804;BME280;29430;52.924;-2.388;2023-06-22T10:49:52;99671.78;;;28.35;46.74
43804;BME280;29430;52.924;-2.388;2023-06-22T10:54:43;99671.94;;;28.30;47.96
43804;BME280;29430;52.924;-2.388;2023-06-22T10:59:35;99671.00;;;28.77;46.12
43804;BME280;29430;52.924;-2.388;2023-06-22T11:04:27;99683.53;;;28.70;44.56
43804;BME280;29430;52.924;-2.388;2023-06-22T11:09:18;99688.19;;;28.36;45.83
43804;BME280;29430;52.924;-2.388;2023-06-22T11:14:20;99682.13;;;28.04;47.05
43804;BME280;29430;52.924;-2.388;2023-06-22T11:19:13;99669.91;;;28.18;49.68
43804;BME280;29430;52.924;-2.388;2023-06-22T11:24:05;99673.34;;;28.87;45.79
43804;BME280;29430;52.924;-2.388;2023-06-22T11:28:57;99665.88;;;29.45;45.76
43804;BME280;29430;52.924;-2.388;2023-06-22T11:33:50;99668.16;;;29.77;44.47
43804;BME280;29430;52.924;-2.388;2023-06-22T11:38:42;99650.53;;;29.76;43.55
43804;BME280;29430;52.924;-2.388;2023-06-22T11:43:34;99644.94;;;29.64;43.75
43804;BME280;29430;52.924;-2.388;2023-06-22T11:48:26;99645.63;;;29.49;45.46
43804;BME280;29430;52.924;-2.388;2023-06-22T11:53:18;99638.09;;;29.61;45.73
43804;BME280;29430;52.924;-2.388;2023-06-22T11:58:10;99633.78;;;29.76;42.30
43804;BME280;29430;52.924;-2.388;2023-06-22T12:03:03;99640.75;;;29.58;44.09
43804;BME280;29430;52.924;-2.388;2023-06-22T12:07:55;99636.53;;;29.39;43.03
43804;BME280;29430;52.924;-2.388;2023-06-22T12:12:47;99645.56;;;28.90;44.35
43804;BME280;29430;52.924;-2.388;2023-06-22T12:17:39;99630.19;;;28.42;44.28
43804;BME280;29430;52.924;-2.388;2023-06-22T12:22:32;99644.47;;;28.19;44.88
43804;BME280;29430;52.924;-2.388;2023-06-22T12:27:24;99642.44;;;27.99;46.22
43804;BME280;29430;52.924;-2.388;2023-06-22T12:32:16;99633.63;;;27.97;46.69
43804;BME280;29430;52.924;-2.388;2023-06-22T12:37:10;99639.22;;;28.18;48.02
43804;BME280;29430;52.924;-2.388;2023-06-22T12:42:02;99644.75;;;28.48;45.57
43804;BME280;29430;52.924;-2.388;2023-06-22T12:46:53;99635.72;;;28.72;44.88
43804;BME280;29430;52.924;-2.388;2023-06-22T12:51:45;99630.00;;;29.02;44.42
43804;BME280;29430;52.924;-2.388;2023-06-22T12:56:37;99628.59;;;28.96;41.80
43804;BME280;29430;52.924;-2.388;2023-06-22T13:01:30;99629.97;;;28.89;44.50
43804;BME280;29430;52.924;-2.388;2023-06-22T13:06:22;99632.41;;;28.91;43.20
43804;BME280;29430;52.924;-2.388;2023-06-22T13:11:14;99626.00;;;28.78;42.98
43804;BME280;29430;52.924;-2.388;2023-06-22T13:16:06;99617.69;;;28.69;43.82
43804;BME280;29430;52.924;-2.388;2023-06-22T13:20:58;99617.91;;;28.64;42.91
43804;BME280;29430;52.924;-2.388;2023-06-22T13:25:49;99615.75;;;28.40;43.01
43804;BME280;29430;52.924;-2.388;2023-06-22T13:30:41;99618.88;;;28.17;45.33
43804;BME280;29430;52.924;-2.388;2023-06-22T13:35:33;99609.38;;;27.89;43.97
43804;BME280;29430;52.924;-2.388;2023-06-22T13:40:26;99612.72;;;27.73;43.18
43804;BME280;29430;52.924;-2.388;2023-06-22T13:45:18;99612.88;;;27.38;43.04
43804;BME280;29430;52.924;-2.388;2023-06-22T13:50:11;99611.44;;;27.14;45.29
43804;BME280;29430;52.924;-2.388;2023-06-22T13:55:04;99610.66;;;27.05;45.47
43804;BME280;29430;52.924;-2.388;2023-06-22T13:59:57;99614.91;;;27.03;46.22
43804;BME280;29430;52.924;-2.388;2023-06-22T14:04:48;99613.19;;;27.28;47.19
43804;BME280;29430;52.924;-2.388;2023-06-22T14:09:40;99607.94;;;27.44;46.62
43804;BME280;29430;52.924;-2.388;2023-06-22T14:14:32;99610.91;;;27.39;45.22
43804;BME280;29430;52.924;-2.388;2023-06-22T14:19:24;99606.03;;;27.18;44.01
43804;BME280;29430;52.924;-2.388;2023-06-22T14:24:17;99610.00;;;27.08;47.03
43804;BME280;29430;52.924;-2.388;2023-06-22T14:29:09;99610.41;;;27.28;47.04
43804;BME280;29430;52.924;-2.388;2023-06-22T14:34:01;99614.78;;;27.46;44.97
43804;BME280;29430;52.924;-2.388;2023-06-22T14:38:54;99621.41;;;27.15;45.42
43804;BME280;29430;52.924;-2.388;2023-06-22T14:43:46;99616.03;;;27.10;46.55
43804;BME280;29430;52.924;-2.388;2023-06-22T14:48:38;99629.34;;;26.96;45.83
43804;BME280;29430;52.924;-2.388;2023-06-22T14:53:30;99611.50;;;26.88;45.03
43804;BME280;29430;52.924;-2.388;2023-06-22T14:58:22;99610.84;;;26.83;44.29
43804;BME280;29430;52.924;-2.388;2023-06-22T15:03:14;99619.34;;;26.86;45.77
43804;BME280;29430;52.924;-2.388;2023-06-22T15:08:10;99617.06;;;26.79;44.98
43804;BME280;29430;52.924;-2.388;2023-06-22T15:13:02;99616.75;;;26.63;45.64
43804;BME280;29430;52.924;-2.388;2023-06-22T15:17:54;99624.63;;;26.70;44.76
43804;BME280;29430;52.924;-2.388;2023-06-22T15:22:45;99614.16;;;26.76;44.12
43804;BME280;29430;52.924;-2.388;2023-06-22T15:27:37;99611.66;;;26.92;45.76
43804;BME280;29430;52.924;-2.388;2023-06-22T15:32:29;99609.53;;;26.97;44.48
43804;BME280;29430;52.924;-2.388;2023-06-22T15:37:21;99602.16;;;26.75;43.42
43804;BME280;29430;52.924;-2.388;2023-06-22T15:42:12;99613.00;;;26.68;45.63
43804;BME280;29430;52.924;-2.388;2023-06-22T15:47:04;99608.72;;;26.62;43.57
43804;BME280;29430;52.924;-2.388;2023-06-22T15:51:56;99603.97;;;26.45;44.84
43804;BME280;29430;52.924;-2.388;2023-06-22T15:56:48;99614.44;;;26.48;45.96
43804;BME280;29430;52.924;-2.388;2023-06-22T16:01:40;99600.53;;;26.48;45.78
43804;BME280;29430;52.924;-2.388;2023-06-22T16:06:31;99605.13;;;26.53;43.91
43804;BME280;29430;52.924;-2.388;2023-06-22T16:11:23;99617.88;;;26.54;43.93
43804;BME280;29430;52.924;-2.388;2023-06-22T16:16:15;99601.50;;;26.61;43.98
43804;BME280;29430;52.924;-2.388;2023-06-22T16:21:07;99611.66;;;26.57;45.07
43804;BME280;29430;52.924;-2.388;2023-06-22T16:25:59;99615.59;;;26.56;44.00
43804;BME280;29430;52.924;-2.388;2023-06-22T16:30:51;99608.38;;;26.55;45.06
43804;BME280;29430;52.924;-2.388;2023-06-22T16:35:44;99611.19;;;26.63;45.96
43804;BME280;29430;52.924;-2.388;2023-06-22T16:40:35;99615.28;;;26.75;44.91
43804;BME280;29430;52.924;-2.388;2023-06-22T16:45:27;99619.53;;;26.72;44.61
43804;BME280;29430;52.924;-2.388;2023-06-22T16:50:19;99621.47;;;26.45;46.18
43804;BME280;29430;52.924;-2.388;2023-06-22T16:55:11;99622.28;;;26.29;45.82
43804;BME280;29430;52.924;-2.388;2023-06-22T17:00:03;99625.22;;;26.06;45.31
43804;BME280;29430;52.924;-2.388;2023-06-22T17:05:00;99622.38;;;25.97;46.43
43804;BME280;29430;52.924;-2.388;2023-06-22T17:09:51;99630.88;;;25.92;46.26
43804;BME280;29430;52.924;-2.388;2023-06-22T17:14:44;99638.03;;;25.84;45.81
43804;BME280;29430;52.924;-2.388;2023-06-22T17:19:36;99634.22;;;25.71;47.17
43804;BME280;29430;52.924;-2.388;2023-06-22T17:24:27;99641.75;;;25.71;46.66
43804;BME280;29430;52.924;-2.388;2023-06-22T17:29:19;99645.13;;;25.59;46.00
43804;BME280;29430;52.924;-2.388;2023-06-22T17:34:12;99647.56;;;25.52;46.46
43804;BME280;29430;52.924;-2.388;2023-06-22T17:39:05;99656.53;;;25.49;46.88
43804;BME280;29430;52.924;-2.388;2023-06-22T17:43:57;99666.47;;;25.41;45.71
43804;BME280;29430;52.924;-2.388;2023-06-22T17:48:49;99671.84;;;25.24;47.02
43804;BME280;29430;52.924;-2.388;2023-06-22T17:53:47;99674.03;;;25.04;46.37
43804;BME280;29430;52.924;-2.388;2023-06-22T17:58:49;99677.91;;;24.80;46.63
43804;BME280;29430;52.924;-2.388;2023-06-22T18:03:44;99678.72;;;24.58;47.10
43804;BME280;29430;52.924;-2.388;2023-06-22T18:08:36;99681.81;;;24.43;47.56
43804;BME280;29430;52.924;-2.388;2023-06-22T18:13:28;99678.88;;;24.25;48.22
43804;BME280;29430;52.924;-2.388;2023-06-22T18:18:21;99685.44;;;24.02;48.29
43804;BME280;29430;52.924;-2.388;2023-06-22T18:23:12;99675.09;;;23.93;48.66
43804;BME280;29430;52.924;-2.388;2023-06-22T18:28:05;99676.81;;;23.89;49.19
43804;BME280;29430;52.924;-2.388;2023-06-22T18:32:58;99676.94;;;23.84;49.06
43804;BME280;29430;52.924;-2.388;2023-06-22T18:37:50;99675.38;;;23.78;50.14
43804;BME280;29430;52.924;-2.388;2023-06-22T18:42:46;99680.41;;;23.76;49.42
43804;BME280;29430;52.924;-2.388;2023-06-22T18:47:38;99679.34;;;23.58;49.79
43804;BME280;29430;52.924;-2.388;2023-06-22T18:52:29;99685.31;;;23.51;50.04
43804;BME280;29430;52.924;-2.388;2023-06-22T18:57:28;99691.44;;;23.48;50.31
43804;BME280;29430;52.924;-2.388;2023-06-22T19:12:46;99687.34;;;23.13;51.08
43804;BME280;29430;52.924;-2.388;2023-06-22T19:17:41;99692.13;;;23.07;50.14
43804;BME280;29430;52.924;-2.388;2023-06-22T19:22:47;99698.34;;;22.99;50.74
43804;BME280;29430;52.924;-2.388;2023-06-22T19:27:44;99699.84;;;22.91;50.71
43804;BME280;29430;52.924;-2.388;2023-06-22T19:32:36;99710.53;;;22.79;51.17
43804;BME280;29430;52.924;-2.388;2023-06-22T19:37:28;99718.59;;;22.75;50.95
43804;BME280;29430;52.924;-2.388;2023-06-22T19:42:20;99725.91;;;22.66;51.43
43804;BME280;29430;52.924;-2.388;2023-06-22T19:47:12;99727.94;;;22.60;52.06
43804;BME280;29430;52.924;-2.388;2023-06-22T19:52:06;99739.81;;;22.61;52.17
43804;BME280;29430;52.924;-2.388;2023-06-22T19:57:02;99740.72;;;22.56;52.60
43804;BME280;29430;52.924;-2.388;2023-06-22T20:01:54;99750.50;;;22.48;53.19
43804;BME280;29430;52.924;-2.388;2023-06-22T20:07:02;99746.16;;;22.42;53.42
43804;BME280;29430;52.924;-2.388;2023-06-22T20:11:58;99756.78;;;22.30;53.32
43804;BME280;29430;52.924;-2.388;2023-06-22T20:16:49;99759.66;;;22.20;53.31
43804;BME280;29430;52.924;-2.388;2023-06-22T20:21:47;99765.91;;;22.06;53.28
43804;BME280;29430;52.924;-2.388;2023-06-22T20:26:43;99769.56;;;21.96;52.95
43804;BME280;29430;52.924;-2.388;2023-06-22T20:31:35;99771.91;;;21.84;53.16
43804;BME280;29430;52.924;-2.388;2023-06-22T20:36:28;99780.53;;;21.77;52.91
43804;BME280;29430;52.924;-2.388;2023-06-22T20:41:20;99789.19;;;21.71;52.65
43804;BME280;29430;52.924;-2.388;2023-06-22T20:46:12;99791.72;;;21.62;52.89
43804;BME280;29430;52.924;-2.388;2023-06-22T20:51:03;99797.88;;;21.54;52.35
43804;BME280;29430;52.924;-2.388;2023-06-22T20:55:55;99804.59;;;21.37;52.67
43804;BME280;29430;52.924;-2.388;2023-06-22T21:00:47;99802.97;;;21.31;52.83
43804;BME280;29430;52.924;-2.388;2023-06-22T21:05:39;99803.56;;;21.28;52.51
43804;BME280;29430;52.924;-2.388;2023-06-22T21:10:31;99798.38;;;21.16;52.54
43804;BME280;29430;52.924;-2.388;2023-06-22T21:15:23;99806.44;;;21.13;52.62
43804;BME280;29430;52.924;-2.388;2023-06-22T21:20:15;99808.69;;;21.05;52.56
43804;BME280;29430;52.924;-2.388;2023-06-22T21:25:12;99794.16;;;20.95;52.90
43804;BME280;29430;52.924;-2.388;2023-06-22T21:30:07;99789.44;;;20.95;52.98
43804;BME280;29430;52.924;-2.388;2023-06-22T21:34:59;99789.19;;;20.91;53.25
43804;BME280;29430;52.924;-2.388;2023-06-22T21:39:51;99796.94;;;20.84;53.29
43804;BME280;29430;52.924;-2.388;2023-06-22T21:44:44;99805.84;;;20.71;53.82
43804;BME280;29430;52.924;-2.388;2023-06-22T21:49:36;99802.28;;;20.60;54.33
43804;BME280;29430;52.924;-2.388;2023-06-22T21:54:28;99816.31;;;20.58;54.54
43804;BME280;29430;52.924;-2.388;2023-06-22T21:59:19;99802.31;;;20.55;54.56
43804;BME280;29430;52.924;-2.388;2023-06-22T22:04:11;99806.75;;;20.46;54.59
43804;BME280;29430;52.924;-2.388;2023-06-22T22:09:03;99810.06;;;20.43;55.14
43804;BME280;29430;52.924;-2.388;2023-06-22T22:13:55;99798.50;;;20.41;54.99
43804;BME280;29430;52.924;-2.388;2023-06-22T22:18:47;99802.91;;;20.36;55.52
43804;BME280;29430;52.924;-2.388;2023-06-22T22:23:39;99794.13;;;20.34;55.78
43804;BME280;29430;52.924;-2.388;2023-06-22T22:28:31;99785.84;;;20.29;56.16
43804;BME280;29430;52.924;-2.388;2023-06-22T22:33:23;99784.00;;;20.14;56.75
43804;BME280;29430;52.924;-2.388;2023-06-22T22:38:15;99775.75;;;20.04;57.34
43804;BME280;29430;52.924;-2.388;2023-06-22T22:43:08;99786.78;;;19.94;57.78
43804;BME280;29430;52.924;-2.388;2023-06-22T22:48:00;99779.94;;;19.81;58.00
43804;BME280;29430;52.924;-2.388;2023-06-22T22:52:52;99789.25;;;19.75;58.89
43804;BME280;29430;52.924;-2.388;2023-06-22T22:57:44;99790.34;;;19.74;58.53
43804;BME280;29430;52.924;-2.388;2023-06-22T23:02:36;99800.00;;;19.71;58.99
43804;BME280;29430;52.924;-2.388;2023-06-22T23:07:28;99808.53;;;19.70;59.27
43804;BME280;29430;52.924;-2.388;2023-06-22T23:12:20;99813.47;;;19.67;59.81
43804;BME280;29430;52.924;-2.388;2023-06-22T23:17:12;99820.09;;;19.61;60.35
43804;BME280;29430;52.924;-2.388;2023-06-22T23:22:05;99812.66;;;19.57;60.00
43804;BME280;29430;52.924;-2.388;2023-06-22T23:26:58;99824.22;;;19.59;60.37
43804;BME280;29430;52.924;-2.388;2023-06-22T23:31:52;99837.69;;;19.55;60.24
43804;BME280;29430;52.924;-2.388;2023-06-22T23:36:45;99826.69;;;19.50;60.64
43804;BME280;29430;52.924;-2.388;2023-06-22T23:41:36;99819.00;;;19.42;60.43
43804;BME280;29430;52.924;-2.388;2023-06-22T23:46:28;99817.34;;;19.41;61.34
43804;BME280;29430;52.924;-2.388;2023-06-22T23:51:22;99812.94;;;19.35;61.93
43804;BME280;29430;52.924;-2.388;2023-06-22T23:56:14;99813.22;;;19.28;62.42
